Howertons, Virginia
Current Conditions -  °F | °C
As of 10:55 AM on Thursday 30 Oct 2014 (Local Time) from KXSA Reporting Station
Clear Clear  
Wind Chill: 58°   Ceiling: Unl
Heat Index: 58°   Visibility: 10mi
Dew Point: 35°   Wind: 10mph
Humidity: 42%   Direction: 320°NW
Pressure: 30.07"   Gusts: 16mph
Location:  37.8346°N, 76.8473°W
Report Text: KXSA 301455Z AUTO 32009G14KT 10SM CLR 14/02 A3007 RMK AO2 T01440017
Loading
Personal Weather Stations






























Interactive Weather Map
Tropical Storm Tracking
New forecast layout! Learn more

10-Day Weather Forecast

Advertisements
Track Severe Weather on mobile